Sequoia — WDI2170 — position and weather

sailwx.info

Track history (hours):
 
Tides and Currents Weather Stations Pressure Air Temp Water Temp Dewpoint Dewpoint Depression Visibility Wind Speed Wind Dir Waves Ship Positions

Sequoia

Owner: DiBenedetto, Nick, Huntington Beach, CA. More information available from US FCC via Universal Licensing System and Coast Guard Vessel Documentation Center.

Last reported at 2017-Sep-29 19:14 UTC. Time now 2017-Oct-20 03:25 UTC.
Position N 33°45' W 118°07'.
Warning: this ship's position is 20 days out of date.

Length 27 m.

Type: Pleasure craft. MMSI: 367675440.

Date/timePositionNaut miles runAvg speedWind from/ knotsBaromVisibWave heightAir tempDewpointWater temp
2017-Sep-29 19:14N 33°45' W 118°07'1 4.8
2017-Sep-29 19:00N 33°44' W 118°07'  
2017-Sep-25 23:00N 33°43' W 118°08'5 9.3
2017-Sep-25 22:30N 33°42' W 118°13'28 9.1
2017-Sep-25 19:24N 33°53' W 118°44'4 9.7
2017-Sep-25 19:00N 33°55' W 118°49'5 9.8
2017-Sep-25 18:30N 33°57' W 118°54'5 9.7
2017-Sep-25 18:00N 33°59' W 118°59'5 9.6
2017-Sep-25 17:30N 34°02' W 119°04'5 9.2
2017-Sep-25 17:00N 34°04' W 119°09'5 9.6
2017-Sep-25 16:26N 34°08' W 119°14'711.6
2017-Sep-25 15:51N 34°12' W 119°20'410.2
2017-Sep-25 15:30N 34°14' W 119°24'5 9.9
2017-Sep-25 15:00N 34°17' W 119°29'5 9.9
2017-Sep-25 14:30N 34°20' W 119°33'6 9.6
2017-Sep-25 13:50N 34°24' W 119°40'  
2017-Sep-21 21:37N 34°10' W 119°14'0 3.4
2017-Sep-21 21:30N 34°10' W 119°13'1 1.0
2017-Sep-21 21:00N 34°09' W 119°14'5 8.8
2017-Sep-21 20:28N 34°06' W 119°10'4 9.1
2017-Sep-21 20:00N 34°03' W 119°06'5 9.0
2017-Sep-21 19:29N 34°01' W 119°01'5 9.0
2017-Sep-21 18:58N 33°58' W 118°57'4 9.2
2017-Sep-21 18:29N 33°56' W 118°52'33 9.0
2017-Sep-21 14:45N 33°42' W 118°15'3 9.4
2017-Sep-21 14:28N 33°43' W 118°12'  
Track history (hours):
 
Tides and Currents Weather Stations Pressure Air Temp Water Temp Dewpoint Dewpoint Depression Visibility Wind Speed Wind Dir Waves Ship Positions

Sequoia

Owner: DiBenedetto, Nick, Huntington Beach, CA. More information available from US FCC via Universal Licensing System and Coast Guard Vessel Documentation Center.

Last reported at 2017-Sep-29 19:14 UTC. Time now 2017-Oct-20 03:25 UTC.
Position N 33°45' W 118°07'.
Warning: this ship's position is 20 days out of date.

Length 27 m.

Type: Pleasure craft. MMSI: 367675440.

Date/timePositionNaut miles runAvg speedWind from/ knotsBaromVisibWave heightAir tempDewpointWater temp
2017-Sep-29 19:14N 33°45' W 118°07'1 4.8
2017-Sep-29 19:00N 33°44' W 118°07'  
2017-Sep-25 23:00N 33°43' W 118°08'5 9.3
2017-Sep-25 22:30N 33°42' W 118°13'28 9.1
2017-Sep-25 19:24N 33°53' W 118°44'4 9.7
2017-Sep-25 19:00N 33°55' W 118°49'5 9.8
2017-Sep-25 18:30N 33°57' W 118°54'5 9.7
2017-Sep-25 18:00N 33°59' W 118°59'5 9.6
2017-Sep-25 17:30N 34°02' W 119°04'5 9.2
2017-Sep-25 17:00N 34°04' W 119°09'5 9.6
2017-Sep-25 16:26N 34°08' W 119°14'711.6
2017-Sep-25 15:51N 34°12' W 119°20'410.2
2017-Sep-25 15:30N 34°14' W 119°24'5 9.9
2017-Sep-25 15:00N 34°17' W 119°29'5 9.9
2017-Sep-25 14:30N 34°20' W 119°33'6 9.6
2017-Sep-25 13:50N 34°24' W 119°40'  
2017-Sep-21 21:37N 34°10' W 119°14'0 3.4
2017-Sep-21 21:30N 34°10' W 119°13'1 1.0
2017-Sep-21 21:00N 34°09' W 119°14'5 8.8
2017-Sep-21 20:28N 34°06' W 119°10'4 9.1
2017-Sep-21 20:00N 34°03' W 119°06'5 9.0
2017-Sep-21 19:29N 34°01' W 119°01'5 9.0
2017-Sep-21 18:58N 33°58' W 118°57'4 9.2
2017-Sep-21 18:29N 33°56' W 118°52'33 9.0
2017-Sep-21 14:45N 33°42' W 118°15'3 9.4
2017-Sep-21 14:28N 33°43' W 118°12'  

Dump ship's entire track history